sensor_id;sensor_type;location;lat;lon;timestamp;pressure;altitude;pressure_sealevel;temperature;humidity
63090;BME280;49174;43.198;27.824;2023-04-06T02:56:32;101241.06;;;4.96;78.72
63090;BME280;49174;43.198;27.824;2023-04-06T02:58:58;101240.66;;;4.91;78.75
63090;BME280;49174;43.198;27.824;2023-04-06T03:01:27;101245.00;;;4.92;77.82
63090;BME280;49174;43.198;27.824;2023-04-06T03:06:35;101249.63;;;4.90;77.42
63090;BME280;49174;43.198;27.824;2023-04-06T03:09:02;101252.78;;;4.85;78.10
63090;BME280;49174;43.198;27.824;2023-04-06T03:11:28;101256.13;;;4.87;78.14
63090;BME280;49174;43.198;27.824;2023-04-06T03:16:35;101266.56;;;4.90;76.06
63090;BME280;49174;43.198;27.824;2023-04-06T03:19:01;101262.34;;;4.88;76.11
63090;BME280;49174;43.198;27.824;2023-04-06T03:21:26;101261.22;;;4.81;76.58
63090;BME280;49174;43.198;27.824;2023-04-06T03:42:47;101258.97;;;4.86;78.09
63090;BME280;49174;43.198;27.824;2023-04-06T03:48:05;101264.84;;;4.89;78.03
63090;BME280;49174;43.198;27.824;2023-04-06T03:50:31;101264.72;;;4.91;77.81
63090;BME280;49174;43.198;27.824;2023-04-06T04:00:59;101265.44;;;4.83;76.84
63090;BME280;49174;43.198;27.824;2023-04-06T04:03:25;101271.69;;;4.74;77.44
63090;BME280;49174;43.198;27.824;2023-04-06T04:05:53;101267.72;;;4.78;77.22
63090;BME280;49174;43.198;27.824;2023-04-06T04:08:19;101272.09;;;4.79;77.60
63090;BME280;49174;43.198;27.824;2023-04-06T04:10:44;101267.16;;;4.75;76.98
63090;BME280;49174;43.198;27.824;2023-04-06T04:13:10;101273.88;;;4.79;78.01
63090;BME280;49174;43.198;27.824;2023-04-06T04:15:35;101267.41;;;4.81;78.43
63090;BME280;49174;43.198;27.824;2023-04-06T04:18:01;101280.78;;;4.81;77.15
63090;BME280;49174;43.198;27.824;2023-04-06T04:20:26;101282.31;;;4.84;77.61
63090;BME280;49174;43.198;27.824;2023-04-06T04:22:53;101278.41;;;4.78;76.46
63090;BME280;49174;43.198;27.824;2023-04-06T04:25:19;101275.59;;;4.80;77.88
63090;BME280;49174;43.198;27.824;2023-04-06T04:27:45;101281.34;;;4.85;78.23
63090;BME280;49174;43.198;27.824;2023-04-06T04:30:11;101283.56;;;4.89;78.59
63090;BME280;49174;43.198;27.824;2023-04-06T04:32:36;101285.28;;;4.90;78.02
63090;BME280;49174;43.198;27.824;2023-04-06T04:35:02;101269.91;;;4.92;77.54
63090;BME280;49174;43.198;27.824;2023-04-06T04:37:27;101267.69;;;4.88;76.61
63090;BME280;49174;43.198;27.824;2023-04-06T04:39:53;101275.81;;;4.96;76.19
63090;BME280;49174;43.198;27.824;2023-04-06T04:42:18;101276.09;;;4.93;76.96
63090;BME280;49174;43.198;27.824;2023-04-06T04:44:44;101277.06;;;5.02;75.96
63090;BME280;49174;43.198;27.824;2023-04-06T04:47:10;101268.13;;;4.83;76.28
63090;BME280;49174;43.198;27.824;2023-04-06T04:49:35;101274.69;;;4.99;77.20
63090;BME280;49174;43.198;27.824;2023-04-06T04:52:01;101280.50;;;5.12;77.34
63090;BME280;49174;43.198;27.824;2023-04-06T04:54:26;101278.25;;;5.17;75.34
63090;BME280;49174;43.198;27.824;2023-04-06T04:56:52;101273.50;;;5.11;75.27
63090;BME280;49174;43.198;27.824;2023-04-06T04:59:18;101276.69;;;5.14;75.39
63090;BME280;49174;43.198;27.824;2023-04-06T05:01:53;101278.00;;;5.10;75.69
63090;BME280;49174;43.198;27.824;2023-04-06T05:04:18;101283.00;;;5.23;76.19
63090;BME280;49174;43.198;27.824;2023-04-06T05:06:44;101277.41;;;5.17;75.36
63090;BME280;49174;43.198;27.824;2023-04-06T05:09:10;101277.84;;;5.12;77.30
63090;BME280;49174;43.198;27.824;2023-04-06T05:11:36;101274.88;;;5.15;77.18
63090;BME280;49174;43.198;27.824;2023-04-06T05:14:01;101270.81;;;5.11;76.00
63090;BME280;49174;43.198;27.824;2023-04-06T05:16:27;101274.19;;;5.13;76.05
63090;BME280;49174;43.198;27.824;2023-04-06T05:18:52;101272.59;;;5.20;75.90
63090;BME280;49174;43.198;27.824;2023-04-06T05:21:18;101274.56;;;5.18;74.99
63090;BME280;49174;43.198;27.824;2023-04-06T05:23:44;101283.28;;;5.20;76.27
63090;BME280;49174;43.198;27.824;2023-04-06T05:26:10;101279.47;;;5.23;76.46
63090;BME280;49174;43.198;27.824;2023-04-06T05:28:35;101275.25;;;5.20;75.79
63090;BME280;49174;43.198;27.824;2023-04-06T05:31:01;101273.28;;;5.22;74.80
63090;BME280;49174;43.198;27.824;2023-04-06T05:33:27;101272.28;;;5.23;74.55
63090;BME280;49174;43.198;27.824;2023-04-06T05:35:52;101265.81;;;5.26;75.22
63090;BME280;49174;43.198;27.824;2023-04-06T05:38:18;101276.38;;;5.27;75.32
63090;BME280;49174;43.198;27.824;2023-04-06T05:40:43;101266.63;;;5.26;74.54
63090;BME280;49174;43.198;27.824;2023-04-06T05:43:09;101275.06;;;5.31;76.04
63090;BME280;49174;43.198;27.824;2023-04-06T05:45:35;101273.78;;;5.35;75.73
63090;BME280;49174;43.198;27.824;2023-04-06T05:48:01;101266.72;;;5.34;74.75
63090;BME280;49174;43.198;27.824;2023-04-06T05:50:27;101270.41;;;5.33;75.26
63090;BME280;49174;43.198;27.824;2023-04-06T05:52:53;101263.28;;;5.24;75.58
63090;BME280;49174;43.198;27.824;2023-04-06T05:55:19;101268.19;;;5.29;76.37
63090;BME280;49174;43.198;27.824;2023-04-06T05:57:45;101258.88;;;5.33;75.10
63090;BME280;49174;43.198;27.824;2023-04-06T06:00:11;101264.34;;;5.31;75.53
63090;BME280;49174;43.198;27.824;2023-04-06T06:02:36;101265.50;;;5.29;74.98
63090;BME280;49174;43.198;27.824;2023-04-06T06:05:02;101259.06;;;5.22;75.34
63090;BME280;49174;43.198;27.824;2023-04-06T06:07:28;101260.16;;;5.29;74.45
63090;BME280;49174;43.198;27.824;2023-04-06T06:09:56;101252.72;;;5.23;76.09
63090;BME280;49174;43.198;27.824;2023-04-06T06:12:22;101252.78;;;5.41;75.61
63090;BME280;49174;43.198;27.824;2023-04-06T06:14:48;101248.19;;;5.51;75.04
63090;BME280;49174;43.198;27.824;2023-04-06T06:17:13;101252.09;;;5.56;75.57
63090;BME280;49174;43.198;27.824;2023-04-06T06:19:40;101253.19;;;5.64;74.96
63090;BME280;49174;43.198;27.824;2023-04-06T06:22:06;101246.69;;;5.66;75.81
63090;BME280;49174;43.198;27.824;2023-04-06T06:24:31;101245.06;;;5.73;74.81
63090;BME280;49174;43.198;27.824;2023-04-06T06:26:57;101245.97;;;5.82;73.99
63090;BME280;49174;43.198;27.824;2023-04-06T06:29:23;101244.63;;;5.96;74.75
63090;BME280;49174;43.198;27.824;2023-04-06T06:31:49;101245.91;;;6.10;73.08
63090;BME280;49174;43.198;27.824;2023-04-06T06:34:15;101247.50;;;6.20;72.04
63090;BME280;49174;43.198;27.824;2023-04-06T06:36:40;101251.19;;;6.19;70.97
63090;BME280;49174;43.198;27.824;2023-04-06T06:39:06;101253.69;;;6.21;70.63
63090;BME280;49174;43.198;27.824;2023-04-06T06:41:31;101258.97;;;6.31;71.24
63090;BME280;49174;43.198;27.824;2023-04-06T06:43:57;101250.47;;;6.35;70.99
63090;BME280;49174;43.198;27.824;2023-04-06T06:46:24;101249.34;;;6.46;71.97
63090;BME280;49174;43.198;27.824;2023-04-06T06:48:50;101250.94;;;6.57;71.43
63090;BME280;49174;43.198;27.824;2023-04-06T06:51:16;101249.44;;;6.62;71.54
63090;BME280;49174;43.198;27.824;2023-04-06T06:53:41;101250.84;;;6.66;70.39
63090;BME280;49174;43.198;27.824;2023-04-06T06:56:07;101240.44;;;6.63;69.58
63090;BME280;49174;43.198;27.824;2023-04-06T06:58:32;101234.06;;;6.64;70.80
63090;BME280;49174;43.198;27.824;2023-04-06T07:00:58;101239.47;;;6.72;71.08
63090;BME280;49174;43.198;27.824;2023-04-06T07:03:25;101232.47;;;6.88;70.20
63090;BME280;49174;43.198;27.824;2023-04-06T07:05:51;101232.19;;;6.99;67.84
63090;BME280;49174;43.198;27.824;2023-04-06T07:08:20;101227.38;;;7.03;69.49
63090;BME280;49174;43.198;27.824;2023-04-06T07:10:46;101236.63;;;7.08;70.71
63090;BME280;49174;43.198;27.824;2023-04-06T07:13:12;101229.56;;;7.15;69.46
63090;BME280;49174;43.198;27.824;2023-04-06T07:15:39;101234.00;;;7.25;69.41
63090;BME280;49174;43.198;27.824;2023-04-06T07:18:05;101231.97;;;7.27;67.61
63090;BME280;49174;43.198;27.824;2023-04-06T07:20:31;101224.97;;;7.42;68.49
63090;BME280;49174;43.198;27.824;2023-04-06T07:22:56;101226.34;;;7.71;68.28
63090;BME280;49174;43.198;27.824;2023-04-06T07:25:22;101229.75;;;7.89;67.31
63090;BME280;49174;43.198;27.824;2023-04-06T07:27:48;101221.69;;;7.89;65.50
63090;BME280;49174;43.198;27.824;2023-04-06T09:43:27;101200.38;;;11.05;56.43
63090;BME280;49174;43.198;27.824;2023-04-06T09:48:35;101180.09;;;11.09;56.50
63090;BME280;49174;43.198;27.824;2023-04-06T12:13:10;101134.22;;;12.36;49.94
63090;BME280;49174;43.198;27.824;2023-04-06T13:50:39;101107.97;;;13.26;49.33
63090;BME280;49174;43.198;27.824;2023-04-06T14:37:19;101095.78;;;12.95;49.06
63090;BME280;49174;43.198;27.824;2023-04-06T14:42:41;101102.59;;;12.37;49.39
63090;BME280;49174;43.198;27.824;2023-04-06T14:45:09;101098.81;;;12.31;51.26
63090;BME280;49174;43.198;27.824;2023-04-06T14:56:24;101109.50;;;12.87;49.57
63090;BME280;49174;43.198;27.824;2023-04-06T14:58:51;101098.97;;;12.64;51.34
63090;BME280;49174;43.198;27.824;2023-04-06T15:28:30;101117.31;;;10.41;73.80
63090;BME280;49174;43.198;27.824;2023-04-06T15:30:56;101116.09;;;10.58;71.58
63090;BME280;49174;43.198;27.824;2023-04-06T15:36:27;101131.19;;;9.85;74.55
63090;BME280;49174;43.198;27.824;2023-04-06T15:38:59;101135.78;;;9.61;77.10
63090;BME280;49174;43.198;27.824;2023-04-06T15:41:25;101134.22;;;9.44;78.11
63090;BME280;49174;43.198;27.824;2023-04-06T15:46:37;101144.03;;;9.60;78.22
63090;BME280;49174;43.198;27.824;2023-04-06T15:54:26;101157.31;;;8.84;82.49
63090;BME280;49174;43.198;27.824;2023-04-06T15:56:52;101158.28;;;8.91;82.22
63090;BME280;49174;43.198;27.824;2023-04-06T15:59:25;101166.72;;;8.80;82.99
63090;BME280;49174;43.198;27.824;2023-04-06T16:03:54;101178.25;;;8.58;84.88
63090;BME280;49174;43.198;27.824;2023-04-06T16:06:20;101170.72;;;8.45;85.85
63090;BME280;49174;43.198;27.824;2023-04-06T16:08:46;101180.28;;;8.56;85.87
63090;BME280;49174;43.198;27.824;2023-04-06T16:11:12;101178.41;;;8.64;85.99
63090;BME280;49174;43.198;27.824;2023-04-06T16:13:37;101178.41;;;8.64;86.09
63090;BME280;49174;43.198;27.824;2023-04-06T16:16:04;101174.56;;;8.59;86.95
63090;BME280;49174;43.198;27.824;2023-04-06T16:18:31;101181.09;;;8.64;86.87
63090;BME280;49174;43.198;27.824;2023-04-06T16:20:57;101180.91;;;8.66;87.03
63090;BME280;49174;43.198;27.824;2023-04-06T16:23:24;101191.31;;;8.69;87.07
63090;BME280;49174;43.198;27.824;2023-04-06T16:25:50;101197.44;;;8.46;88.39
63090;BME280;49174;43.198;27.824;2023-04-06T16:28:19;101188.88;;;8.35;89.25
63090;BME280;49174;43.198;27.824;2023-04-06T16:30:45;101190.88;;;8.33;89.97
63090;BME280;49174;43.198;27.824;2023-04-06T16:33:11;101195.78;;;8.21;91.19
63090;BME280;49174;43.198;27.824;2023-04-06T16:35:48;101196.13;;;8.26;91.56
63090;BME280;49174;43.198;27.824;2023-04-06T16:38:15;101195.28;;;8.25;91.42
63090;BME280;49174;43.198;27.824;2023-04-06T16:40:41;101200.47;;;8.35;91.22
63090;BME280;49174;43.198;27.824;2023-04-06T16:43:07;101210.88;;;8.30;91.52
63090;BME280;49174;43.198;27.824;2023-04-06T16:48:16;101206.53;;;8.21;92.09
63090;BME280;49174;43.198;27.824;2023-04-06T16:50:42;101211.75;;;7.98;93.34
63090;BME280;49174;43.198;27.824;2023-04-06T16:53:07;101211.75;;;8.06;93.91
63090;BME280;49174;43.198;27.824;2023-04-06T17:01:23;101223.00;;;7.93;93.19
63090;BME280;49174;43.198;27.824;2023-04-06T17:06:52;101237.13;;;8.28;91.89
63090;BME280;49174;43.198;27.824;2023-04-06T17:09:17;101228.88;;;8.13;91.84
63090;BME280;49174;43.198;27.824;2023-04-06T17:11:42;101232.78;;;8.02;92.89
63090;BME280;49174;43.198;27.824;2023-04-06T17:14:08;101232.09;;;7.92;93.78
63090;BME280;49174;43.198;27.824;2023-04-06T17:16:34;101232.44;;;7.97;93.00
63090;BME280;49174;43.198;27.824;2023-04-06T17:19:00;101235.63;;;8.09;91.91
63090;BME280;49174;43.198;27.824;2023-04-06T17:21:26;101238.78;;;8.13;91.88
63090;BME280;49174;43.198;27.824;2023-04-06T17:23:52;101243.81;;;8.16;91.29
63090;BME280;49174;43.198;27.824;2023-04-06T17:26:17;101244.69;;;8.08;91.27
63090;BME280;49174;43.198;27.824;2023-04-06T17:28:43;101251.88;;;7.99;91.97
63090;BME280;49174;43.198;27.824;2023-04-06T17:31:10;101246.19;;;7.94;92.44
63090;BME280;49174;43.198;27.824;2023-04-06T17:33:37;101247.53;;;7.90;92.14
63090;BME280;49174;43.198;27.824;2023-04-06T17:36:04;101242.69;;;7.86;93.07
63090;BME280;49174;43.198;27.824;2023-04-06T17:38:30;101255.25;;;7.93;92.55
63090;BME280;49174;43.198;27.824;2023-04-06T17:40:56;101262.97;;;7.96;92.21
63090;BME280;49174;43.198;27.824;2023-04-06T17:43:22;101261.97;;;7.89;92.94
63090;BME280;49174;43.198;27.824;2023-04-06T17:45:49;101263.28;;;7.77;92.87
63090;BME280;49174;43.198;27.824;2023-04-06T17:48:17;101265.97;;;7.69;94.20
63090;BME280;49174;43.198;27.824;2023-04-06T17:50:43;101268.97;;;7.66;94.93
63090;BME280;49174;43.198;27.824;2023-04-06T17:53:10;101271.84;;;7.64;95.26
63090;BME280;49174;43.198;27.824;2023-04-06T17:55:36;101270.50;;;7.68;95.78
63090;BME280;49174;43.198;27.824;2023-04-06T17:58:01;101280.06;;;7.71;95.17
63090;BME280;49174;43.198;27.824;2023-04-06T18:00:27;101275.22;;;7.66;94.53
63090;BME280;49174;43.198;27.824;2023-04-06T18:02:53;101278.19;;;7.55;94.32
63090;BME280;49174;43.198;27.824;2023-04-06T18:05:20;101282.03;;;7.44;95.19
63090;BME280;49174;43.198;27.824;2023-04-06T18:07:49;101288.34;;;7.35;95.97
63090;BME280;49174;43.198;27.824;2023-04-06T18:10:16;101290.13;;;7.18;98.12
63090;BME280;49174;43.198;27.824;2023-04-06T18:12:42;101285.44;;;7.12;98.80
63090;BME280;49174;43.198;27.824;2023-04-06T18:15:08;101287.59;;;7.08;99.61
63090;BME280;49174;43.198;27.824;2023-04-06T18:17:33;101293.47;;;7.12;99.16
63090;BME280;49174;43.198;27.824;2023-04-06T18:19:59;101291.59;;;7.04;100.00
63090;BME280;49174;43.198;27.824;2023-04-06T18:22:26;101299.69;;;7.12;100.00
63090;BME280;49174;43.198;27.824;2023-04-06T18:24:52;101299.75;;;7.29;98.33
63090;BME280;49174;43.198;27.824;2023-04-06T18:27:19;101293.94;;;7.42;96.54
63090;BME280;49174;43.198;27.824;2023-04-06T18:29:46;101294.44;;;7.45;95.24
63090;BME280;49174;43.198;27.824;2023-04-06T18:32:14;101300.16;;;7.42;95.50
63090;BME280;49174;43.198;27.824;2023-04-06T18:34:42;101303.44;;;7.28;95.12
63090;BME280;49174;43.198;27.824;2023-04-06T18:37:09;101298.03;;;7.20;95.08
63090;BME280;49174;43.198;27.824;2023-04-06T18:39:35;101302.00;;;7.07;95.02
63090;BME280;49174;43.198;27.824;2023-04-06T18:42:01;101305.66;;;6.98;96.25
63090;BME280;49174;43.198;27.824;2023-04-06T18:44:27;101309.13;;;6.90;96.55
63090;BME280;49174;43.198;27.824;2023-04-06T18:46:53;101304.75;;;6.89;97.55
63090;BME280;49174;43.198;27.824;2023-04-06T18:49:19;101303.41;;;6.85;96.90
63090;BME280;49174;43.198;27.824;2023-04-06T18:51:44;101308.78;;;6.85;97.32
63090;BME280;49174;43.198;27.824;2023-04-06T18:54:10;101307.03;;;6.76;97.85
63090;BME280;49174;43.198;27.824;2023-04-06T18:56:37;101313.44;;;6.57;97.83
63090;BME280;49174;43.198;27.824;2023-04-06T18:59:03;101321.66;;;6.38;100.00
63090;BME280;49174;43.198;27.824;2023-04-06T19:01:32;101319.47;;;6.33;100.00
63090;BME280;49174;43.198;27.824;2023-04-06T19:03:59;101327.88;;;6.38;100.00
63090;BME280;49174;43.198;27.824;2023-04-06T19:06:24;101326.63;;;6.51;100.00
63090;BME280;49174;43.198;27.824;2023-04-06T19:08:53;101325.22;;;6.64;99.57
63090;BME280;49174;43.198;27.824;2023-04-06T19:11:19;101324.84;;;6.59;98.04
63090;BME280;49174;43.198;27.824;2023-04-06T19:13:47;101325.47;;;6.53;97.62
63090;BME280;49174;43.198;27.824;2023-04-06T19:16:16;101330.09;;;6.43;97.98
63090;BME280;49174;43.198;27.824;2023-04-06T19:18:42;101327.94;;;6.46;97.96
63090;BME280;49174;43.198;27.824;2023-04-06T19:21:22;101335.63;;;6.41;97.49
63090;BME280;49174;43.198;27.824;2023-04-06T19:23:50;101337.69;;;6.30;95.59
63090;BME280;49174;43.198;27.824;2023-04-06T19:26:17;101335.94;;;6.20;96.17
63090;BME280;49174;43.198;27.824;2023-04-06T19:28:43;101340.53;;;6.10;95.44
63090;BME280;49174;43.198;27.824;2023-04-06T19:31:11;101342.63;;;5.89;95.22
63090;BME280;49174;43.198;27.824;2023-04-06T19:33:37;101351.38;;;5.91;97.70
63090;BME280;49174;43.198;27.824;2023-04-06T19:36:04;101350.81;;;5.87;96.43
63090;BME280;49174;43.198;27.824;2023-04-06T19:38:30;101351.56;;;5.79;96.44
63090;BME280;49174;43.198;27.824;2023-04-06T19:40:57;101348.09;;;5.69;97.22
63090;BME280;49174;43.198;27.824;2023-04-06T19:43:22;101352.94;;;5.66;98.71
63090;BME280;49174;43.198;27.824;2023-04-06T19:45:48;101351.69;;;5.60;95.96
63090;BME280;49174;43.198;27.824;2023-04-06T19:48:13;101351.59;;;5.52;96.53
63090;BME280;49174;43.198;27.824;2023-04-06T19:50:39;101360.91;;;5.48;98.34
63090;BME280;49174;43.198;27.824;2023-04-06T19:53:05;101356.97;;;5.42;98.95
63090;BME280;49174;43.198;27.824;2023-04-06T19:55:33;101368.13;;;5.37;99.40
63090;BME280;49174;43.198;27.824;2023-04-06T19:57:59;101371.97;;;5.25;99.32
63090;BME280;49174;43.198;27.824;2023-04-06T20:00:25;101370.31;;;5.14;100.00
63090;BME280;49174;43.198;27.824;2023-04-06T20:02:50;101367.28;;;5.00;98.54
63090;BME280;49174;43.198;27.824;2023-04-06T20:05:16;101365.63;;;4.99;100.00
63090;BME280;49174;43.198;27.824;2023-04-06T20:07:41;101370.66;;;5.02;100.00
63090;BME280;49174;43.198;27.824;2023-04-06T20:10:07;101368.94;;;5.10;99.00
63090;BME280;49174;43.198;27.824;2023-04-06T20:12:33;101370.50;;;5.03;99.23
63090;BME280;49174;43.198;27.824;2023-04-06T20:14:59;101364.56;;;5.09;99.08
63090;BME280;49174;43.198;27.824;2023-04-06T20:17:24;101372.03;;;5.06;97.45
63090;BME280;49174;43.198;27.824;2023-04-06T20:19:50;101372.66;;;4.90;97.54
63090;BME280;49174;43.198;27.824;2023-04-06T20:22:18;101377.31;;;4.88;98.47
63090;BME280;49174;43.198;27.824;2023-04-06T20:24:44;101378.72;;;4.82;98.12
63090;BME280;49174;43.198;27.824;2023-04-06T20:27:09;101383.25;;;4.72;97.93
63090;BME280;49174;43.198;27.824;2023-04-06T20:29:35;101376.38;;;4.60;98.58
63090;BME280;49174;43.198;27.824;2023-04-06T20:32:00;101377.75;;;4.64;98.44
63090;BME280;49174;43.198;27.824;2023-04-06T20:34:26;101387.31;;;4.57;99.03
63090;BME280;49174;43.198;27.824;2023-04-06T20:36:56;101384.53;;;4.58;98.35
63090;BME280;49174;43.198;27.824;2023-04-06T20:39:23;101388.63;;;4.53;98.32
63090;BME280;49174;43.198;27.824;2023-04-06T20:41:50;101387.63;;;4.54;98.78
63090;BME280;49174;43.198;27.824;2023-04-06T20:44:15;101379.75;;;4.42;99.09
63090;BME280;49174;43.198;27.824;2023-04-06T20:46:42;101389.59;;;4.32;99.11
63090;BME280;49174;43.198;27.824;2023-04-06T20:49:11;101386.78;;;4.43;99.21
63090;BME280;49174;43.198;27.824;2023-04-06T20:51:37;101394.66;;;4.35;97.15
63090;BME280;49174;43.198;27.824;2023-04-06T20:54:03;101398.72;;;4.20;98.47
63090;BME280;49174;43.198;27.824;2023-04-06T20:56:28;101390.44;;;4.13;100.00
63090;BME280;49174;43.198;27.824;2023-04-06T20:58:55;101395.06;;;4.01;100.00
63090;BME280;49174;43.198;27.824;2023-04-06T21:01:22;101400.69;;;3.98;100.00
63090;BME280;49174;43.198;27.824;2023-04-06T21:03:48;101398.41;;;4.03;100.00
63090;BME280;49174;43.198;27.824;2023-04-06T21:06:14;101399.69;;;3.99;100.00
63090;BME280;49174;43.198;27.824;2023-04-06T21:08:40;101402.19;;;4.01;100.00
63090;BME280;49174;43.198;27.824;2023-04-06T21:11:06;101396.63;;;4.04;100.00
63090;BME280;49174;43.198;27.824;2023-04-06T21:13:32;101412.59;;;3.94;100.00
63090;BME280;49174;43.198;27.824;2023-04-06T21:15:58;101412.16;;;3.79;100.00
63090;BME280;49174;43.198;27.824;2023-04-06T21:18:24;101409.59;;;3.68;100.00
63090;BME280;49174;43.198;27.824;2023-04-06T21:20:49;101414.28;;;3.86;100.00
63090;BME280;49174;43.198;27.824;2023-04-06T21:23:15;101411.88;;;3.92;100.00
63090;BME280;49174;43.198;27.824;2023-04-06T21:25:40;101406.81;;;3.89;100.00
63090;BME280;49174;43.198;27.824;2023-04-06T21:28:06;101414.13;;;3.87;100.00
63090;BME280;49174;43.198;27.824;2023-04-06T21:30:32;101416.78;;;3.87;100.00
63090;BME280;49174;43.198;27.824;2023-04-06T21:33:04;101411.88;;;3.92;100.00
63090;BME280;49174;43.198;27.824;2023-04-06T21:35:31;101416.44;;;4.01;100.00
63090;BME280;49174;43.198;27.824;2023-04-06T21:37:57;101426.13;;;4.12;100.00
63090;BME280;49174;43.198;27.824;2023-04-06T21:40:23;101415.19;;;4.15;100.00
63090;BME280;49174;43.198;27.824;2023-04-06T21:42:49;101424.19;;;4.24;100.00
63090;BME280;49174;43.198;27.824;2023-04-06T21:45:14;101418.56;;;4.37;100.00
63090;BME280;49174;43.198;27.824;2023-04-06T21:47:40;101423.63;;;4.40;100.00
63090;BME280;49174;43.198;27.824;2023-04-06T21:50:06;101427.31;;;4.48;100.00
63090;BME280;49174;43.198;27.824;2023-04-06T21:52:32;101422.50;;;4.52;100.00
63090;BME280;49174;43.198;27.824;2023-04-06T21:54:57;101423.22;;;4.64;100.00
63090;BME280;49174;43.198;27.824;2023-04-06T21:57:22;101420.53;;;4.64;100.00
63090;BME280;49174;43.198;27.824;2023-04-06T21:59:48;101418.28;;;4.59;100.00
63090;BME280;49174;43.198;27.824;2023-04-06T22:02:14;101417.31;;;4.60;100.00
63090;BME280;49174;43.198;27.824;2023-04-06T22:04:39;101433.06;;;4.63;100.00
63090;BME280;49174;43.198;27.824;2023-04-06T22:07:05;101437.16;;;4.58;100.00
63090;BME280;49174;43.198;27.824;2023-04-06T22:09:30;101435.44;;;4.57;100.00
63090;BME280;49174;43.198;27.824;2023-04-06T22:11:56;101434.03;;;4.53;100.00
63090;BME280;49174;43.198;27.824;2023-04-06T22:14:21;101437.69;;;4.61;100.00
63090;BME280;49174;43.198;27.824;2023-04-06T22:16:47;101432.63;;;4.68;100.00
63090;BME280;49174;43.198;27.824;2023-04-06T22:19:13;101433.34;;;4.80;100.00
63090;BME280;49174;43.198;27.824;2023-04-06T22:21:38;101445.00;;;4.88;100.00
63090;BME280;49174;43.198;27.824;2023-04-06T22:24:05;101438.66;;;4.89;100.00
63090;BME280;49174;43.198;27.824;2023-04-06T22:26:31;101442.75;;;4.93;100.00
63090;BME280;49174;43.198;27.824;2023-04-06T22:28:57;101438.81;;;4.88;100.00
63090;BME280;49174;43.198;27.824;2023-04-06T22:31:22;101447.09;;;4.95;100.00
63090;BME280;49174;43.198;27.824;2023-04-06T22:33:47;101446.09;;;5.05;100.00
63090;BME280;49174;43.198;27.824;2023-04-06T22:36:13;101452.13;;;5.17;100.00
63090;BME280;49174;43.198;27.824;2023-04-06T22:38:39;101445.91;;;5.26;100.00
63090;BME280;49174;43.198;27.824;2023-04-06T22:41:04;101450.00;;;5.30;100.00
63090;BME280;49174;43.198;27.824;2023-04-06T22:43:31;101451.53;;;5.33;100.00
63090;BME280;49174;43.198;27.824;2023-04-06T22:45:56;101450.81;;;5.31;100.00
63090;BME280;49174;43.198;27.824;2023-04-06T22:48:22;101447.06;;;5.24;100.00
63090;BME280;49174;43.198;27.824;2023-04-06T22:50:47;101445.06;;;5.26;100.00
63090;BME280;49174;43.198;27.824;2023-04-06T22:53:13;101444.75;;;5.29;100.00
63090;BME280;49174;43.198;27.824;2023-04-06T22:55:39;101443.09;;;5.28;100.00
63090;BME280;49174;43.198;27.824;2023-04-06T22:58:05;101449.69;;;5.33;100.00
63090;BME280;49174;43.198;27.824;2023-04-06T23:00:31;101453.06;;;5.35;100.00
63090;BME280;49174;43.198;27.824;2023-04-06T23:02:58;101460.09;;;5.36;100.00
63090;BME280;49174;43.198;27.824;2023-04-06T23:05:23;101461.06;;;5.45;100.00
63090;BME280;49174;43.198;27.824;2023-04-06T23:07:49;101457.00;;;5.41;100.00
63090;BME280;49174;43.198;27.824;2023-04-06T23:10:18;101460.47;;;5.51;100.00
63090;BME280;49174;43.198;27.824;2023-04-06T23:12:47;101457.78;;;5.51;100.00
63090;BME280;49174;43.198;27.824;2023-04-06T23:15:13;101468.38;;;5.53;100.00
63090;BME280;49174;43.198;27.824;2023-04-06T23:17:38;101456.94;;;5.60;100.00
63090;BME280;49174;43.198;27.824;2023-04-06T23:20:04;101460.84;;;5.66;100.00
63090;BME280;49174;43.198;27.824;2023-04-06T23:22:30;101457.19;;;5.67;100.00
63090;BME280;49174;43.198;27.824;2023-04-06T23:24:56;101464.06;;;5.70;100.00
63090;BME280;49174;43.198;27.824;2023-04-06T23:27:21;101459.72;;;5.69;100.00
63090;BME280;49174;43.198;27.824;2023-04-06T23:29:47;101461.94;;;5.73;100.00
63090;BME280;49174;43.198;27.824;2023-04-06T23:32:13;101452.88;;;5.84;100.00
63090;BME280;49174;43.198;27.824;2023-04-06T23:34:38;101460.78;;;5.86;100.00
63090;BME280;49174;43.198;27.824;2023-04-06T23:37:04;101452.88;;;5.84;100.00
63090;BME280;49174;43.198;27.824;2023-04-06T23:39:30;101458.41;;;5.82;100.00
63090;BME280;49174;43.198;27.824;2023-04-06T23:41:56;101457.38;;;5.83;100.00
63090;BME280;49174;43.198;27.824;2023-04-06T23:44:28;101454.00;;;5.81;100.00
63090;BME280;49174;43.198;27.824;2023-04-06T23:46:55;101460.47;;;5.89;100.00
63090;BME280;49174;43.198;27.824;2023-04-06T23:49:20;101463.59;;;5.94;100.00
63090;BME280;49174;43.198;27.824;2023-04-06T23:51:46;101463.28;;;5.97;100.00
63090;BME280;49174;43.198;27.824;2023-04-06T23:54:12;101455.53;;;5.94;100.00
63090;BME280;49174;43.198;27.824;2023-04-06T23:56:37;101459.34;;;5.91;100.00
63090;BME280;49174;43.198;27.824;2023-04-06T23:59:03;101455.94;;;5.89;100.00
